JBU2761 KFLL-TNCM
Flight info
| Callsign | JBU2761 |
|---|---|
| Flight time | N/A |
| Altitude | 35000 |
| Route | SNAPR2 SUMAC Y421 HAGIT Y290 SLUGO |
| Aircraft | A320/M-SDE3FGHIRWY/LB1 |
Departure
| Time | 2026-05-04 16:14 |
|---|---|
| Airport | Fort Lauderdale Hollywood International Airport (KFLL) |
Arrival
| Time | N/A |
|---|---|
| Airport | Princess Juliana International Airport (TNCM) |
| Time | Latitude | Longitude | Altitude | Speed | Heading |
|---|---|---|---|---|---|
| 2026-05-04 15:54 | 26.07152 | -80.14648 | 9 ft | 0 kts | 179° |
| 2026-05-04 16:02 | 26.07166 | -80.14648 | 9 ft | 2 kts | 178° |
| 2026-05-04 16:03 | 26.07181 | -80.14644 | 9 ft | 2 kts | 217° |
| 2026-05-04 16:03 | 26.07191 | -80.14631 | 9 ft | 2 kts | 250° |
| 2026-05-04 16:03 | 26.07193 | -80.14617 | 9 ft | 0 kts | 278° |
| 2026-05-04 16:03 | 26.07191 | -80.14610 | 9 ft | 1 kts | 283° |
| 2026-05-04 16:04 | 26.07191 | -80.14609 | 9 ft | 0 kts | 282° |
| 2026-05-04 16:07 | 26.07199 | -80.14652 | 9 ft | 9 kts | 281° |
| 2026-05-04 16:08 | 26.07229 | -80.14748 | 9 ft | 14 kts | 296° |
| 2026-05-04 16:08 | 26.07380 | -80.14919 | 9 ft | 4 kts | 298° |
| 2026-05-04 16:09 | 26.07389 | -80.15003 | 9 ft | 7 kts | 232° |
| 2026-05-04 16:09 | 26.07305 | -80.15101 | 9 ft | 10 kts | 225° |
| 2026-05-04 16:10 | 26.07157 | -80.15127 | 9 ft | 11 kts | 181° |
| 2026-05-04 16:11 | 26.06883 | -80.15131 | 9 ft | 14 kts | 181° |
| 2026-05-04 16:11 | 26.06783 | -80.15131 | 9 ft | 14 kts | 180° |
| 2026-05-04 16:12 | 26.06695 | -80.15341 | 9 ft | 13 kts | 270° |
| 2026-05-04 16:12 | 26.06698 | -80.15666 | 9 ft | 14 kts | 271° |
| 2026-05-04 16:13 | 26.06628 | -80.15741 | 9 ft | 8 kts | 178° |
| 2026-05-04 16:13 | 26.06589 | -80.15698 | 9 ft | 3 kts | 92° |
| 2026-05-04 16:14 | 26.06581 | -80.14690 | 12 ft | 133 kts | 89° |
| 2026-05-04 16:14 | 26.06523 | -80.12092 | 859 ft | 179 kts | 88° |
| 2026-05-04 16:15 | 26.06520 | -80.07967 | 2688 ft | 197 kts | 85° |
| 2026-05-04 16:16 | 26.06629 | -80.04627 | 3387 ft | 238 kts | 87° |
| 2026-05-04 16:16 | 26.06733 | -79.98628 | 5099 ft | 273 kts | 89° |
| 2026-05-04 16:17 | 26.06690 | -79.94376 | 6516 ft | 283 kts | 91° |
| 2026-05-04 16:18 | 26.06601 | -79.87692 | 8596 ft | 295 kts | 89° |
| 2026-05-04 16:18 | 26.06612 | -79.85428 | 9277 ft | 297 kts | 91° |
| 2026-05-04 16:19 | 26.05887 | -79.78304 | 10578 ft | 331 kts | 102° |
| 2026-05-04 16:19 | 26.05001 | -79.73066 | 11136 ft | 363 kts | 101° |
| 2026-05-04 16:20 | 26.03618 | -79.64513 | 12541 ft | 383 kts | 103° |
| 2026-05-04 16:20 | 26.02294 | -79.58698 | 13498 ft | 394 kts | 106° |
| 2026-05-04 16:21 | 26.00194 | -79.49831 | 15077 ft | 401 kts | 106° |
| 2026-05-04 16:22 | 25.98770 | -79.43791 | 15997 ft | 408 kts | 106° |
| 2026-05-04 16:22 | 25.96257 | -79.34743 | 17309 ft | 414 kts | 114° |
| 2026-05-04 16:23 | 25.93092 | -79.25710 | 18512 ft | 422 kts | 114° |
| 2026-05-04 16:24 | 25.88798 | -79.13432 | 20030 ft | 433 kts | 114° |
| 2026-05-04 16:25 | 25.86612 | -79.07178 | 20758 ft | 438 kts | 113° |
| 2026-05-04 16:26 | 25.82159 | -78.94455 | 22173 ft | 448 kts | 113° |
| 2026-05-04 16:26 | 25.78753 | -78.84760 | 23219 ft | 454 kts | 113° |
| 2026-05-04 16:27 | 25.76445 | -78.78204 | 23834 ft | 460 kts | 113° |
| 2026-05-04 16:28 | 25.72309 | -78.68616 | 24777 ft | 464 kts | 125° |
| 2026-05-04 16:28 | 25.66812 | -78.59673 | 25658 ft | 471 kts | 128° |
| 2026-05-04 16:29 | 25.59385 | -78.47532 | 26812 ft | 482 kts | 124° |
| 2026-05-04 16:30 | 25.55600 | -78.37142 | 27652 ft | 493 kts | 107° |
| 2026-05-04 16:31 | 25.53791 | -78.29795 | 28127 ft | 498 kts | 107° |
| 2026-05-04 16:31 | 25.51002 | -78.18700 | 28795 ft | 505 kts | 107° |
| 2026-05-04 16:32 | 25.48109 | -78.07444 | 29424 ft | 512 kts | 107° |
| 2026-05-04 16:33 | 25.46154 | -77.99863 | 29964 ft | 512 kts | 107° |
| 2026-05-04 16:33 | 25.44208 | -77.92312 | 30673 ft | 508 kts | 108° |
| 2026-05-04 16:34 | 25.42266 | -77.84819 | 31331 ft | 505 kts | 108° |
| 2026-05-04 16:34 | 25.41312 | -77.81142 | 31630 ft | 503 kts | 108° |
| 2026-05-04 16:35 | 25.38416 | -77.70017 | 32527 ft | 499 kts | 109° |
| 2026-05-04 16:35 | 25.35555 | -77.59064 | 33362 ft | 496 kts | 109° |
| 2026-05-04 16:36 | 25.34595 | -77.55392 | 33532 ft | 498 kts | 110° |
| 2026-05-04 16:36 | 25.32660 | -77.48027 | 33902 ft | 500 kts | 110° |
| 2026-05-04 16:37 | 25.30668 | -77.40691 | 34183 ft | 502 kts | 113° |
| 2026-05-04 16:37 | 25.29451 | -77.37103 | 34337 ft | 501 kts | 117° |
| 2026-05-04 16:37 | 25.26389 | -77.30198 | 34620 ft | 497 kts | 126° |
| 2026-05-04 16:38 | 25.22732 | -77.23797 | 34880 ft | 496 kts | 129° |
| 2026-05-04 16:39 | 25.17079 | -77.14212 | 35016 ft | 497 kts | 129° |
| 2026-05-04 16:39 | 25.13316 | -77.07793 | 35024 ft | 498 kts | 129° |
| 2026-05-04 16:40 | 25.05804 | -76.94969 | 35025 ft | 499 kts | 129° |
| 2026-05-04 16:41 | 24.96423 | -76.78994 | 35018 ft | 499 kts | 129° |
| 2026-05-04 16:43 | 24.86987 | -76.62984 | 35021 ft | 498 kts | 129° |
| 2026-05-04 16:43 | 24.81311 | -76.53381 | 35024 ft | 500 kts | 129° |
| 2026-05-04 16:45 | 24.69938 | -76.34180 | 35019 ft | 498 kts | 130° |
| 2026-05-04 16:46 | 24.60450 | -76.18231 | 35027 ft | 500 kts | 129° |
| 2026-05-04 16:47 | 24.53015 | -76.05337 | 35024 ft | 500 kts | 128° |
| 2026-05-04 16:48 | 24.45774 | -75.92339 | 35018 ft | 501 kts | 128° |
| 2026-05-04 16:49 | 24.38505 | -75.79385 | 35029 ft | 499 kts | 128° |
| 2026-05-04 16:50 | 24.31218 | -75.66438 | 35034 ft | 499 kts | 127° |
| 2026-05-04 16:51 | 24.25758 | -75.56763 | 35032 ft | 498 kts | 127° |
| 2026-05-04 16:52 | 24.18477 | -75.43881 | 35038 ft | 498 kts | 127° |
| 2026-05-04 16:53 | 24.12967 | -75.34168 | 35037 ft | 499 kts | 128° |
| 2026-05-04 16:54 | 24.05702 | -75.21371 | 35039 ft | 496 kts | 128° |
| 2026-05-04 16:55 | 23.94747 | -75.02159 | 35031 ft | 497 kts | 128° |
| 2026-05-04 16:56 | 23.85606 | -74.86174 | 35022 ft | 497 kts | 128° |
| 2026-05-04 16:57 | 23.80100 | -74.76575 | 35026 ft | 498 kts | 128° |
| 2026-05-04 16:58 | 23.72761 | -74.63805 | 35032 ft | 497 kts | 128° |
| 2026-05-04 17:00 | 23.61702 | -74.44631 | 35034 ft | 499 kts | 127° |
| 2026-05-04 17:01 | 23.52502 | -74.28728 | 35039 ft | 498 kts | 128° |
| 2026-05-04 17:02 | 23.45112 | -74.15997 | 35035 ft | 497 kts | 128° |
| 2026-05-04 17:03 | 23.39582 | -74.06483 | 35031 ft | 496 kts | 128° |
| 2026-05-04 17:03 | 23.34037 | -73.96973 | 35026 ft | 497 kts | 128° |
| 2026-05-04 17:04 | 23.26636 | -73.84294 | 35027 ft | 498 kts | 127° |
| 2026-05-04 17:05 | 23.19224 | -73.71632 | 35027 ft | 497 kts | 128° |
| 2026-05-04 17:06 | 23.13666 | -73.62158 | 35025 ft | 497 kts | 127° |
| 2026-05-04 17:07 | 23.08710 | -73.53725 | 35025 ft | 497 kts | 127° |
| 2026-05-04 17:07 | 23.04376 | -73.46361 | 35024 ft | 496 kts | 127° |
| 2026-05-04 17:08 | 22.98824 | -73.36946 | 35024 ft | 497 kts | 127° |
| 2026-05-04 17:09 | 22.95098 | -73.30636 | 35022 ft | 496 kts | 127° |
| 2026-05-04 17:09 | 22.91388 | -73.24357 | 35024 ft | 496 kts | 128° |
| 2026-05-04 17:10 | 22.82098 | -73.08672 | 35025 ft | 495 kts | 127° |
| 2026-05-04 17:11 | 22.78356 | -73.02373 | 35024 ft | 495 kts | 127° |
| 2026-05-04 17:12 | 22.72783 | -72.93001 | 35025 ft | 495 kts | 127° |
| 2026-05-04 17:13 | 22.63470 | -72.77371 | 35024 ft | 494 kts | 127° |
| 2026-05-04 17:14 | 22.56022 | -72.64903 | 35024 ft | 494 kts | 127° |
| 2026-05-04 17:15 | 22.50433 | -72.55576 | 35024 ft | 493 kts | 127° |
| 2026-05-04 17:16 | 22.42972 | -72.43141 | 35024 ft | 493 kts | 127° |
| 2026-05-04 17:17 | 22.35516 | -72.30744 | 35023 ft | 492 kts | 127° |
| 2026-05-04 17:18 | 22.28058 | -72.18375 | 35023 ft | 491 kts | 127° |
| 2026-05-04 17:19 | 22.20608 | -72.06044 | 35023 ft | 491 kts | 127° |
| 2026-05-04 17:20 | 22.13147 | -71.93724 | 35023 ft | 492 kts | 127° |
| 2026-05-04 17:20 | 22.07549 | -71.84502 | 35024 ft | 492 kts | 127° |
| 2026-05-04 17:21 | 22.00066 | -71.72199 | 35023 ft | 490 kts | 127° |
| 2026-05-04 17:22 | 21.96326 | -71.66054 | 35026 ft | 490 kts | 127° |
| 2026-05-04 17:23 | 21.88874 | -71.53841 | 35021 ft | 489 kts | 127° |
| 2026-05-04 17:24 | 21.83268 | -71.44668 | 35021 ft | 489 kts | 127° |
| 2026-05-04 17:25 | 21.75811 | -71.32496 | 35016 ft | 489 kts | 127° |
| 2026-05-04 17:26 | 21.68307 | -71.20272 | 35019 ft | 488 kts | 127° |
| 2026-05-04 17:27 | 21.58975 | -71.05102 | 35012 ft | 487 kts | 127° |
| 2026-05-04 17:28 | 21.51380 | -70.93079 | 35005 ft | 487 kts | 127° |
| 2026-05-04 17:29 | 21.39934 | -70.75128 | 35009 ft | 487 kts | 127° |
| 2026-05-04 17:31 | 21.30389 | -70.60184 | 35011 ft | 486 kts | 127° |
| 2026-05-04 17:32 | 21.20821 | -70.45242 | 35015 ft | 486 kts | 127° |
| 2026-05-04 17:33 | 21.13176 | -70.33331 | 35014 ft | 485 kts | 128° |
| 2026-05-04 17:34 | 21.05512 | -70.21420 | 35020 ft | 486 kts | 127° |
| 2026-05-04 17:35 | 20.95911 | -70.06529 | 35021 ft | 486 kts | 127° |
| 2026-05-04 17:36 | 20.92087 | -70.00609 | 35019 ft | 485 kts | 127° |
| 2026-05-04 17:36 | 20.88247 | -69.94670 | 35026 ft | 485 kts | 127° |
| 2026-05-04 17:37 | 20.84398 | -69.88725 | 35027 ft | 485 kts | 127° |
| 2026-05-04 17:37 | 20.80550 | -69.82790 | 35023 ft | 485 kts | 127° |
| 2026-05-04 17:38 | 20.76716 | -69.76879 | 35023 ft | 486 kts | 127° |
| 2026-05-04 17:38 | 20.72861 | -69.70941 | 35027 ft | 485 kts | 127° |
| 2026-05-04 17:39 | 20.67120 | -69.62109 | 35026 ft | 484 kts | 127° |
| 2026-05-04 17:39 | 20.63276 | -69.56204 | 35028 ft | 484 kts | 127° |
| 2026-05-04 17:40 | 20.59455 | -69.50343 | 35026 ft | 483 kts | 127° |
| 2026-05-04 17:40 | 20.55618 | -69.44460 | 35028 ft | 482 kts | 127° |
| 2026-05-04 17:41 | 20.51784 | -69.38591 | 35033 ft | 482 kts | 127° |
| 2026-05-04 17:41 | 20.47964 | -69.32746 | 35031 ft | 482 kts | 127° |
| 2026-05-04 17:42 | 20.44132 | -69.26891 | 35031 ft | 482 kts | 127° |
| 2026-05-04 17:42 | 20.40317 | -69.21067 | 35034 ft | 482 kts | 127° |
| 2026-05-04 17:43 | 20.36479 | -69.15211 | 35041 ft | 481 kts | 127° |
| 2026-05-04 17:43 | 20.32660 | -69.09390 | 35041 ft | 480 kts | 127° |
| 2026-05-04 17:44 | 20.28815 | -69.03539 | 35042 ft | 480 kts | 127° |
| 2026-05-04 17:44 | 20.25001 | -68.97738 | 35043 ft | 479 kts | 127° |
| 2026-05-04 17:45 | 20.21177 | -68.91929 | 35043 ft | 479 kts | 127° |
| 2026-05-04 17:45 | 20.17372 | -68.86153 | 35045 ft | 479 kts | 127° |
| 2026-05-04 17:46 | 20.13542 | -68.80341 | 35043 ft | 480 kts | 127° |
| 2026-05-04 17:46 | 20.09703 | -68.74526 | 35044 ft | 479 kts | 127° |
| 2026-05-04 17:47 | 20.05948 | -68.68720 | 35044 ft | 480 kts | 125° |
| 2026-05-04 17:47 | 20.02287 | -68.62769 | 35046 ft | 479 kts | 125° |
| 2026-05-04 17:48 | 19.98657 | -68.56874 | 35045 ft | 479 kts | 125° |
| 2026-05-04 17:48 | 19.95008 | -68.50976 | 35045 ft | 479 kts | 124° |
| 2026-05-04 17:49 | 19.91345 | -68.45068 | 35045 ft | 478 kts | 125° |
| 2026-05-04 17:49 | 19.87666 | -68.39144 | 35047 ft | 479 kts | 124° |
| 2026-05-04 17:50 | 19.84013 | -68.33267 | 35046 ft | 479 kts | 125° |
| 2026-05-04 17:50 | 19.80346 | -68.27375 | 35046 ft | 478 kts | 125° |
| 2026-05-04 17:51 | 19.76697 | -68.21516 | 35046 ft | 478 kts | 125° |
| 2026-05-04 17:51 | 19.73032 | -68.15636 | 35046 ft | 478 kts | 125° |
| 2026-05-04 17:52 | 19.69350 | -68.09736 | 35046 ft | 477 kts | 125° |
| 2026-05-04 17:52 | 19.65697 | -68.03889 | 35047 ft | 477 kts | 125° |
| 2026-05-04 17:53 | 19.62036 | -67.98034 | 35046 ft | 478 kts | 125° |
| 2026-05-04 17:53 | 19.58374 | -67.92182 | 35047 ft | 477 kts | 125° |
| 2026-05-04 17:54 | 19.54694 | -67.86304 | 35045 ft | 477 kts | 125° |
| 2026-05-04 17:54 | 19.51032 | -67.80463 | 35046 ft | 477 kts | 125° |
| 2026-05-04 17:55 | 19.47354 | -67.74603 | 35043 ft | 477 kts | 125° |
| 2026-05-04 17:55 | 19.43691 | -67.68781 | 35043 ft | 477 kts | 125° |
| 2026-05-04 17:56 | 19.40010 | -67.62929 | 35042 ft | 477 kts | 124° |
| 2026-05-04 17:56 | 19.36340 | -67.57098 | 35040 ft | 476 kts | 124° |
| 2026-05-04 17:57 | 19.32670 | -67.51265 | 35040 ft | 477 kts | 124° |
| 2026-05-04 17:57 | 19.29010 | -67.45461 | 35038 ft | 477 kts | 124° |
| 2026-05-04 17:58 | 19.25326 | -67.39629 | 35037 ft | 476 kts | 124° |
| 2026-05-04 17:58 | 19.21630 | -67.33789 | 35034 ft | 476 kts | 125° |
| 2026-05-04 17:59 | 19.17957 | -67.27987 | 35033 ft | 476 kts | 124° |
| 2026-05-04 18:00 | 19.12426 | -67.19253 | 35030 ft | 475 kts | 124° |
| 2026-05-04 18:00 | 19.08758 | -67.13466 | 35029 ft | 474 kts | 124° |
| 2026-05-04 18:01 | 19.05109 | -67.07711 | 35028 ft | 474 kts | 124° |
| 2026-05-04 18:01 | 19.01433 | -67.01923 | 35025 ft | 474 kts | 124° |
| 2026-05-04 18:02 | 18.95929 | -66.93265 | 35023 ft | 474 kts | 124° |
| 2026-05-04 18:02 | 18.92269 | -66.87516 | 35027 ft | 473 kts | 124° |
| 2026-05-04 18:03 | 18.88596 | -66.81747 | 35024 ft | 473 kts | 124° |
| 2026-05-04 18:03 | 18.84926 | -66.75988 | 35028 ft | 473 kts | 124° |
| 2026-05-04 18:04 | 18.81262 | -66.70236 | 35031 ft | 473 kts | 123° |
| 2026-05-04 18:05 | 18.76987 | -66.60872 | 35034 ft | 474 kts | 108° |
| 2026-05-04 18:05 | 18.75488 | -66.54108 | 35035 ft | 474 kts | 97° |
| 2026-05-04 18:06 | 18.74719 | -66.43757 | 35038 ft | 473 kts | 93° |
| 2026-05-04 18:06 | 18.74292 | -66.36874 | 35041 ft | 473 kts | 93° |
| 2026-05-04 18:07 | 18.73839 | -66.29935 | 35041 ft | 473 kts | 93° |
| 2026-05-04 18:07 | 18.73379 | -66.23061 | 35042 ft | 472 kts | 93° |
| 2026-05-04 18:08 | 18.72912 | -66.16177 | 35044 ft | 473 kts | 93° |
| 2026-05-04 18:08 | 18.72440 | -66.09255 | 35047 ft | 472 kts | 93° |
| 2026-05-04 18:09 | 18.71495 | -65.95495 | 35049 ft | 472 kts | 93° |
| 2026-05-04 18:10 | 18.71019 | -65.88606 | 35049 ft | 472 kts | 93° |
| 2026-05-04 18:10 | 18.70540 | -65.81729 | 35047 ft | 471 kts | 93° |
| 2026-05-04 18:11 | 18.70056 | -65.74832 | 35044 ft | 471 kts | 93° |
| 2026-05-04 18:11 | 18.69572 | -65.67968 | 35043 ft | 471 kts | 93° |
| 2026-05-04 18:12 | 18.69089 | -65.61115 | 35042 ft | 471 kts | 93° |
| 2026-05-04 18:12 | 18.68601 | -65.54253 | 35042 ft | 471 kts | 93° |
| 2026-05-04 18:13 | 18.68110 | -65.47372 | 35041 ft | 471 kts | 93° |
| 2026-05-04 18:14 | 18.67323 | -65.37059 | 35038 ft | 471 kts | 95° |
| 2026-05-04 18:14 | 18.66310 | -65.30204 | 35040 ft | 471 kts | 99° |
| 2026-05-04 18:15 | 18.64080 | -65.16647 | 35039 ft | 471 kts | 98° |
| 2026-05-04 18:16 | 18.62962 | -65.09832 | 34663 ft | 470 kts | 98° |
| 2026-05-04 18:16 | 18.62412 | -65.06478 | 34139 ft | 468 kts | 98° |
| 2026-05-04 18:16 | 18.61857 | -65.03097 | 33466 ft | 466 kts | 98° |
| 2026-05-04 18:17 | 18.60758 | -64.96414 | 32087 ft | 465 kts | 98° |
| 2026-05-04 18:17 | 18.60208 | -64.93082 | 31380 ft | 466 kts | 98° |
| 2026-05-04 18:17 | 18.59095 | -64.86349 | 29853 ft | 470 kts | 98° |
| 2026-05-04 18:18 | 18.58540 | -64.82989 | 29219 ft | 468 kts | 98° |
| 2026-05-04 18:18 | 18.57989 | -64.79658 | 28724 ft | 463 kts | 98° |
| 2026-05-04 18:18 | 18.57441 | -64.76341 | 28225 ft | 458 kts | 98° |
| 2026-05-04 18:18 | 18.56900 | -64.73069 | 27742 ft | 453 kts | 98° |
| 2026-05-04 18:19 | 18.55828 | -64.66611 | 26805 ft | 443 kts | 98° |
| 2026-05-04 18:19 | 18.55301 | -64.63442 | 26343 ft | 438 kts | 98° |
| 2026-05-04 18:19 | 18.54781 | -64.60319 | 25888 ft | 433 kts | 98° |
| 2026-05-04 18:20 | 18.54267 | -64.57238 | 25426 ft | 428 kts | 98° |
| 2026-05-04 18:20 | 18.53753 | -64.54153 | 24961 ft | 424 kts | 98° |
| 2026-05-04 18:20 | 18.53250 | -64.51135 | 24510 ft | 419 kts | 98° |
| 2026-05-04 18:20 | 18.52749 | -64.48143 | 24060 ft | 415 kts | 98° |
| 2026-05-04 18:21 | 18.52253 | -64.45178 | 23617 ft | 411 kts | 99° |
| 2026-05-04 18:21 | 18.51757 | -64.42210 | 23180 ft | 406 kts | 99° |
| 2026-05-04 18:21 | 18.51272 | -64.39320 | 22759 ft | 402 kts | 99° |
| 2026-05-04 18:21 | 18.50784 | -64.36407 | 22330 ft | 398 kts | 99° |
| 2026-05-04 18:22 | 18.50307 | -64.33567 | 21894 ft | 396 kts | 99° |
| 2026-05-04 18:22 | 18.49830 | -64.30740 | 21410 ft | 394 kts | 99° |
| 2026-05-04 18:22 | 18.49348 | -64.27880 | 20869 ft | 395 kts | 99° |
| 2026-05-04 18:22 | 18.48872 | -64.25053 | 20330 ft | 396 kts | 99° |
| 2026-05-04 18:23 | 18.48394 | -64.22217 | 19766 ft | 397 kts | 99° |
| 2026-05-04 18:23 | 18.47909 | -64.19339 | 19207 ft | 398 kts | 100° |
| 2026-05-04 18:23 | 18.47428 | -64.16492 | 18656 ft | 400 kts | 100° |
| 2026-05-04 18:23 | 18.46939 | -64.13599 | 18092 ft | 401 kts | 100° |
| 2026-05-04 18:24 | 18.46450 | -64.10706 | 17527 ft | 402 kts | 100° |
| 2026-05-04 18:24 | 18.45965 | -64.07843 | 16968 ft | 402 kts | 100° |
| 2026-05-04 18:24 | 18.45476 | -64.04961 | 16451 ft | 401 kts | 100° |
| 2026-05-04 18:24 | 18.44983 | -64.02065 | 15964 ft | 398 kts | 100° |
| 2026-05-04 18:25 | 18.44500 | -63.99228 | 15496 ft | 395 kts | 100° |
| 2026-05-04 18:25 | 18.44021 | -63.96413 | 15040 ft | 392 kts | 100° |
| 2026-05-04 18:25 | 18.43544 | -63.93610 | 14585 ft | 388 kts | 100° |
| 2026-05-04 18:25 | 18.43069 | -63.90815 | 14129 ft | 384 kts | 101° |
| 2026-05-04 18:26 | 18.42600 | -63.88063 | 13686 ft | 381 kts | 101° |
| 2026-05-04 18:26 | 18.42133 | -63.85330 | 13254 ft | 376 kts | 101° |
| 2026-05-04 18:26 | 18.41678 | -63.82664 | 12851 ft | 372 kts | 100° |
| 2026-05-04 18:26 | 18.41224 | -63.80006 | 12415 ft | 368 kts | 100° |
| 2026-05-04 18:27 | 18.40773 | -63.77370 | 11961 ft | 365 kts | 100° |
| 2026-05-04 18:27 | 18.40319 | -63.74722 | 11490 ft | 363 kts | 100° |
| 2026-05-04 18:27 | 18.39876 | -63.72136 | 11020 ft | 360 kts | 100° |
| 2026-05-04 18:27 | 18.39436 | -63.69572 | 10637 ft | 355 kts | 100° |
| 2026-05-04 18:28 | 18.38772 | -63.67114 | 10382 ft | 345 kts | 115° |
| 2026-05-04 18:28 | 18.37430 | -63.65099 | 10255 ft | 333 kts | 133° |
| 2026-05-04 18:28 | 18.35770 | -63.63428 | 10148 ft | 321 kts | 136° |
| 2026-05-04 18:28 | 18.34164 | -63.61865 | 9996 ft | 311 kts | 136° |
| 2026-05-04 18:29 | 18.32590 | -63.60332 | 9703 ft | 307 kts | 136° |
| 2026-05-04 18:29 | 18.31040 | -63.58814 | 9428 ft | 302 kts | 135° |
| 2026-05-04 18:29 | 18.29521 | -63.57320 | 9160 ft | 298 kts | 135° |
| 2026-05-04 18:29 | 18.28024 | -63.55843 | 8896 ft | 293 kts | 135° |
| 2026-05-04 18:30 | 18.25088 | -63.52934 | 8373 ft | 285 kts | 135° |
| 2026-05-04 18:30 | 18.23656 | -63.51515 | 8117 ft | 280 kts | 135° |
| 2026-05-04 18:30 | 18.22248 | -63.50119 | 7853 ft | 277 kts | 135° |
| 2026-05-04 18:31 | 18.20836 | -63.48720 | 7554 ft | 274 kts | 135° |
| 2026-05-04 18:31 | 18.19452 | -63.47349 | 7245 ft | 273 kts | 135° |
| 2026-05-04 18:31 | 18.18082 | -63.45991 | 6945 ft | 270 kts | 135° |
| 2026-05-04 18:31 | 18.16718 | -63.44639 | 6644 ft | 268 kts | 135° |
| 2026-05-04 18:32 | 18.15366 | -63.43298 | 6344 ft | 266 kts | 135° |
| 2026-05-04 18:32 | 18.14009 | -63.41953 | 6033 ft | 265 kts | 135° |
| 2026-05-04 18:32 | 18.12679 | -63.40636 | 5736 ft | 262 kts | 135° |
| 2026-05-04 18:32 | 18.11350 | -63.39322 | 5437 ft | 261 kts | 135° |
| 2026-05-04 18:33 | 18.10047 | -63.38031 | 5141 ft | 259 kts | 135° |
| 2026-05-04 18:33 | 18.08736 | -63.36734 | 4882 ft | 255 kts | 134° |